sensor_id;sensor_type;location;lat;lon;timestamp;P1;durP1;ratioP1;P2;durP2;ratioP2
18853;SDS011;9556;49.374;19.446;2023-03-01T00:01:27;24.33;;;15.30;;
18853;SDS011;9556;49.374;19.446;2023-03-01T00:03:55;25.90;;;15.68;;
18853;SDS011;9556;49.374;19.446;2023-03-01T00:06:22;26.50;;;15.93;;
18853;SDS011;9556;49.374;19.446;2023-03-01T00:08:49;28.17;;;16.03;;
18853;SDS011;9556;49.374;19.446;2023-03-01T00:11:18;27.67;;;16.03;;
18853;SDS011;9556;49.374;19.446;2023-03-01T00:13:47;27.43;;;16.27;;
18853;SDS011;9556;49.374;19.446;2023-03-01T00:16:15;28.40;;;15.30;;
18853;SDS011;9556;49.374;19.446;2023-03-01T00:18:43;24.93;;;15.33;;
18853;SDS011;9556;49.374;19.446;2023-03-01T00:21:10;25.80;;;15.10;;
18853;SDS011;9556;49.374;19.446;2023-03-01T00:23:37;23.90;;;15.23;;
18853;SDS011;9556;49.374;19.446;2023-03-01T00:26:05;25.42;;;15.73;;
18853;SDS011;9556;49.374;19.446;2023-03-01T00:28:32;24.07;;;14.67;;
18853;SDS011;9556;49.374;19.446;2023-03-01T00:31:03;26.30;;;15.43;;
18853;SDS011;9556;49.374;19.446;2023-03-01T00:33:30;28.10;;;16.20;;
18853;SDS011;9556;49.374;19.446;2023-03-01T00:35:58;24.53;;;15.70;;
18853;SDS011;9556;49.374;19.446;2023-03-01T00:38:25;25.47;;;15.97;;
18853;SDS011;9556;49.374;19.446;2023-03-01T00:40:52;29.63;;;17.27;;
18853;SDS011;9556;49.374;19.446;2023-03-01T00:43:19;26.87;;;16.53;;
18853;SDS011;9556;49.374;19.446;2023-03-01T00:45:46;28.50;;;16.50;;
18853;SDS011;9556;49.374;19.446;2023-03-01T00:48:15;27.97;;;16.40;;
18853;SDS011;9556;49.374;19.446;2023-03-01T00:50:42;29.43;;;16.80;;
18853;SDS011;9556;49.374;19.446;2023-03-01T00:53:09;27.60;;;15.37;;
18853;SDS011;9556;49.374;19.446;2023-03-01T00:55:37;24.87;;;15.37;;
18853;SDS011;9556;49.374;19.446;2023-03-01T00:58:04;27.13;;;16.70;;
18853;SDS011;9556;49.374;19.446;2023-03-01T01:00:31;28.67;;;16.60;;
18853;SDS011;9556;49.374;19.446;2023-03-01T01:02:58;24.23;;;14.93;;
18853;SDS011;9556;49.374;19.446;2023-03-01T01:05:27;24.50;;;15.40;;
18853;SDS011;9556;49.374;19.446;2023-03-01T01:07:54;26.47;;;15.47;;
18853;SDS011;9556;49.374;19.446;2023-03-01T01:10:21;24.53;;;15.40;;
18853;SDS011;9556;49.374;19.446;2023-03-01T01:12:48;26.97;;;15.87;;
18853;SDS011;9556;49.374;19.446;2023-03-01T01:15:16;25.40;;;15.47;;
18853;SDS011;9556;49.374;19.446;2023-03-01T01:17:43;24.45;;;15.38;;
18853;SDS011;9556;49.374;19.446;2023-03-01T01:20:10;24.33;;;15.07;;
18853;SDS011;9556;49.374;19.446;2023-03-01T01:22:39;25.50;;;14.73;;
18853;SDS011;9556;49.374;19.446;2023-03-01T01:25:06;25.23;;;15.57;;
18853;SDS011;9556;49.374;19.446;2023-03-01T01:27:34;24.73;;;15.03;;
18853;SDS011;9556;49.374;19.446;2023-03-01T01:30:01;25.20;;;14.90;;
18853;SDS011;9556;49.374;19.446;2023-03-01T01:32:28;25.83;;;15.77;;
18853;SDS011;9556;49.374;19.446;2023-03-01T01:34:56;22.77;;;14.30;;
18853;SDS011;9556;49.374;19.446;2023-03-01T01:37:23;23.37;;;14.90;;
18853;SDS011;9556;49.374;19.446;2023-03-01T01:39:57;23.47;;;14.63;;
18853;SDS011;9556;49.374;19.446;2023-03-01T01:42:25;23.20;;;14.60;;
18853;SDS011;9556;49.374;19.446;2023-03-01T01:47:34;23.33;;;13.93;;
18853;SDS011;9556;49.374;19.446;2023-03-01T01:50:02;22.90;;;14.13;;
18853;SDS011;9556;49.374;19.446;2023-03-01T01:52:29;23.40;;;13.77;;
18853;SDS011;9556;49.374;19.446;2023-03-01T01:55:00;21.50;;;13.53;;
18853;SDS011;9556;49.374;19.446;2023-03-01T01:57:29;21.67;;;12.90;;
18853;SDS011;9556;49.374;19.446;2023-03-01T02:00:00;21.73;;;13.07;;
18853;SDS011;9556;49.374;19.446;2023-03-01T02:02:29;22.80;;;13.30;;
18853;SDS011;9556;49.374;19.446;2023-03-01T02:04:58;22.63;;;13.63;;
18853;SDS011;9556;49.374;19.446;2023-03-01T02:07:29;21.73;;;13.07;;
18853;SDS011;9556;49.374;19.446;2023-03-01T02:09:57;21.97;;;13.00;;
18853;SDS011;9556;49.374;19.446;2023-03-01T02:12:26;22.60;;;14.13;;
18853;SDS011;9556;49.374;19.446;2023-03-01T02:14:53;20.93;;;12.90;;
18853;SDS011;9556;49.374;19.446;2023-03-01T02:17:21;23.03;;;13.50;;
18853;SDS011;9556;49.374;19.446;2023-03-01T02:19:51;21.87;;;13.43;;
18853;SDS011;9556;49.374;19.446;2023-03-01T02:22:22;21.97;;;13.33;;
18853;SDS011;9556;49.374;19.446;2023-03-01T02:24:54;22.37;;;13.83;;
18853;SDS011;9556;49.374;19.446;2023-03-01T02:27:26;22.03;;;13.30;;
18853;SDS011;9556;49.374;19.446;2023-03-01T02:29:56;23.23;;;13.97;;
18853;SDS011;9556;49.374;19.446;2023-03-01T02:32:23;22.90;;;13.43;;
18853;SDS011;9556;49.374;19.446;2023-03-01T02:34:50;20.20;;;13.00;;
18853;SDS011;9556;49.374;19.446;2023-03-01T02:37:18;21.97;;;13.53;;
18853;SDS011;9556;49.374;19.446;2023-03-01T02:39:50;23.03;;;14.10;;
18853;SDS011;9556;49.374;19.446;2023-03-01T02:42:20;22.77;;;14.27;;
18853;SDS011;9556;49.374;19.446;2023-03-01T02:44:48;23.17;;;14.50;;
18853;SDS011;9556;49.374;19.446;2023-03-01T02:47:17;24.87;;;14.73;;
18853;SDS011;9556;49.374;19.446;2023-03-01T02:49:44;20.63;;;13.43;;
18853;SDS011;9556;49.374;19.446;2023-03-01T02:52:21;24.73;;;14.30;;
18853;SDS011;9556;49.374;19.446;2023-03-01T02:54:51;24.20;;;14.20;;
18853;SDS011;9556;49.374;19.446;2023-03-01T02:57:20;22.17;;;13.93;;
18853;SDS011;9556;49.374;19.446;2023-03-01T02:59:48;23.07;;;14.00;;
18853;SDS011;9556;49.374;19.446;2023-03-01T03:02:22;23.53;;;14.00;;
18853;SDS011;9556;49.374;19.446;2023-03-01T03:05:01;23.43;;;14.30;;
18853;SDS011;9556;49.374;19.446;2023-03-01T03:07:29;22.73;;;14.30;;
18853;SDS011;9556;49.374;19.446;2023-03-01T03:09:57;25.10;;;14.73;;
18853;SDS011;9556;49.374;19.446;2023-03-01T03:12:24;25.53;;;14.23;;
18853;SDS011;9556;49.374;19.446;2023-03-01T03:14:51;22.93;;;14.50;;
18853;SDS011;9556;49.374;19.446;2023-03-01T03:17:18;24.03;;;14.77;;
18853;SDS011;9556;49.374;19.446;2023-03-01T03:19:47;26.13;;;14.83;;
18853;SDS011;9556;49.374;19.446;2023-03-01T03:22:14;24.10;;;14.93;;
18853;SDS011;9556;49.374;19.446;2023-03-01T03:24:41;23.47;;;14.47;;
18853;SDS011;9556;49.374;19.446;2023-03-01T03:27:08;22.73;;;14.03;;
18853;SDS011;9556;49.374;19.446;2023-03-01T03:29:35;24.57;;;14.87;;
18853;SDS011;9556;49.374;19.446;2023-03-01T03:32:03;23.87;;;14.70;;
18853;SDS011;9556;49.374;19.446;2023-03-01T03:34:30;24.37;;;14.90;;
18853;SDS011;9556;49.374;19.446;2023-03-01T03:36:58;24.37;;;15.00;;
18853;SDS011;9556;49.374;19.446;2023-03-01T03:39:26;24.17;;;14.23;;
18853;SDS011;9556;49.374;19.446;2023-03-01T03:42:00;22.17;;;13.83;;
18853;SDS011;9556;49.374;19.446;2023-03-01T03:44:27;24.70;;;15.20;;
18853;SDS011;9556;49.374;19.446;2023-03-01T03:46:54;21.13;;;13.13;;
18853;SDS011;9556;49.374;19.446;2023-03-01T03:49:22;22.83;;;13.80;;
18853;SDS011;9556;49.374;19.446;2023-03-01T03:51:49;22.40;;;14.10;;
18853;SDS011;9556;49.374;19.446;2023-03-01T03:54:17;20.60;;;13.23;;
18853;SDS011;9556;49.374;19.446;2023-03-01T03:56:44;24.50;;;14.17;;
18853;SDS011;9556;49.374;19.446;2023-03-01T03:59:12;22.77;;;14.13;;
18853;SDS011;9556;49.374;19.446;2023-03-01T04:01:39;21.67;;;13.37;;
18853;SDS011;9556;49.374;19.446;2023-03-01T04:04:06;21.80;;;13.33;;
18853;SDS011;9556;49.374;19.446;2023-03-01T04:06:33;24.27;;;14.30;;
18853;SDS011;9556;49.374;19.446;2023-03-01T04:09:00;22.20;;;13.50;;
18853;SDS011;9556;49.374;19.446;2023-03-01T04:11:29;22.93;;;13.93;;
18853;SDS011;9556;49.374;19.446;2023-03-01T04:13:57;24.30;;;14.37;;
18853;SDS011;9556;49.374;19.446;2023-03-01T04:16:25;19.40;;;12.47;;
18853;SDS011;9556;49.374;19.446;2023-03-01T04:18:52;21.37;;;13.50;;
18853;SDS011;9556;49.374;19.446;2023-03-01T04:21:20;24.43;;;13.97;;
18853;SDS011;9556;49.374;19.446;2023-03-01T04:23:50;22.17;;;12.77;;
18853;SDS011;9556;49.374;19.446;2023-03-01T04:26:17;21.67;;;13.93;;
18853;SDS011;9556;49.374;19.446;2023-03-01T04:28:46;21.43;;;13.93;;
18853;SDS011;9556;49.374;19.446;2023-03-01T04:31:16;27.50;;;14.90;;
18853;SDS011;9556;49.374;19.446;2023-03-01T04:33:44;23.83;;;14.40;;
18853;SDS011;9556;49.374;19.446;2023-03-01T04:36:12;23.57;;;14.90;;
18853;SDS011;9556;49.374;19.446;2023-03-01T04:38:39;27.43;;;15.67;;
18853;SDS011;9556;49.374;19.446;2023-03-01T04:41:07;24.17;;;14.97;;
18853;SDS011;9556;49.374;19.446;2023-03-01T04:43:35;23.80;;;14.10;;
18853;SDS011;9556;49.374;19.446;2023-03-01T04:46:05;21.67;;;13.57;;
18853;SDS011;9556;49.374;19.446;2023-03-01T04:48:34;21.43;;;13.30;;
18853;SDS011;9556;49.374;19.446;2023-03-01T04:51:01;20.87;;;12.67;;
18853;SDS011;9556;49.374;19.446;2023-03-01T04:53:29;21.80;;;13.30;;
18853;SDS011;9556;49.374;19.446;2023-03-01T04:55:56;22.57;;;13.33;;
18853;SDS011;9556;49.374;19.446;2023-03-01T04:58:24;20.40;;;13.20;;
18853;SDS011;9556;49.374;19.446;2023-03-01T05:00:51;18.50;;;11.60;;
18853;SDS011;9556;49.374;19.446;2023-03-01T05:03:20;21.17;;;12.63;;
18853;SDS011;9556;49.374;19.446;2023-03-01T05:05:48;21.17;;;12.83;;
18853;SDS011;9556;49.374;19.446;2023-03-01T05:08:16;18.33;;;11.87;;
18853;SDS011;9556;49.374;19.446;2023-03-01T05:10:44;21.17;;;11.93;;
18853;SDS011;9556;49.374;19.446;2023-03-01T05:13:12;19.43;;;11.97;;
18853;SDS011;9556;49.374;19.446;2023-03-01T05:15:40;19.20;;;12.50;;
18853;SDS011;9556;49.374;19.446;2023-03-01T05:18:07;17.43;;;12.07;;
18853;SDS011;9556;49.374;19.446;2023-03-01T05:20:37;21.23;;;12.93;;
18853;SDS011;9556;49.374;19.446;2023-03-01T05:23:05;19.00;;;12.40;;
18853;SDS011;9556;49.374;19.446;2023-03-01T05:25:32;22.27;;;13.20;;
18853;SDS011;9556;49.374;19.446;2023-03-01T05:28:05;23.93;;;13.83;;
18853;SDS011;9556;49.374;19.446;2023-03-01T05:30:32;22.33;;;13.20;;
18853;SDS011;9556;49.374;19.446;2023-03-01T05:33:00;19.90;;;13.37;;
18853;SDS011;9556;49.374;19.446;2023-03-01T05:35:27;19.77;;;12.30;;
18853;SDS011;9556;49.374;19.446;2023-03-01T05:37:58;17.90;;;11.73;;
18853;SDS011;9556;49.374;19.446;2023-03-01T05:40:26;19.67;;;12.10;;
18853;SDS011;9556;49.374;19.446;2023-03-01T05:42:55;22.97;;;13.93;;
18853;SDS011;9556;49.374;19.446;2023-03-01T05:45:23;22.67;;;14.10;;
18853;SDS011;9556;49.374;19.446;2023-03-01T05:47:51;21.67;;;13.53;;
18853;SDS011;9556;49.374;19.446;2023-03-01T05:50:20;21.70;;;13.63;;
18853;SDS011;9556;49.374;19.446;2023-03-01T05:52:49;21.87;;;12.57;;
18853;SDS011;9556;49.374;19.446;2023-03-01T05:55:18;24.53;;;13.60;;
18853;SDS011;9556;49.374;19.446;2023-03-01T05:57:45;20.67;;;12.77;;
18853;SDS011;9556;49.374;19.446;2023-03-01T06:00:14;21.37;;;12.87;;
18853;SDS011;9556;49.374;19.446;2023-03-01T06:02:41;20.80;;;13.03;;
18853;SDS011;9556;49.374;19.446;2023-03-01T06:05:09;23.47;;;13.27;;
18853;SDS011;9556;49.374;19.446;2023-03-01T06:07:37;20.53;;;12.60;;
18853;SDS011;9556;49.374;19.446;2023-03-01T06:10:05;21.53;;;13.07;;
18853;SDS011;9556;49.374;19.446;2023-03-01T06:12:34;22.50;;;13.83;;
18853;SDS011;9556;49.374;19.446;2023-03-01T06:15:02;24.47;;;13.97;;
18853;SDS011;9556;49.374;19.446;2023-03-01T06:17:30;24.97;;;13.67;;
18853;SDS011;9556;49.374;19.446;2023-03-01T06:19:57;24.43;;;13.10;;
18853;SDS011;9556;49.374;19.446;2023-03-01T06:22:24;20.37;;;13.00;;
18853;SDS011;9556;49.374;19.446;2023-03-01T06:24:51;21.87;;;12.97;;
18853;SDS011;9556;49.374;19.446;2023-03-01T06:27:19;29.43;;;13.43;;
18853;SDS011;9556;49.374;19.446;2023-03-01T06:29:47;23.03;;;13.20;;
18853;SDS011;9556;49.374;19.446;2023-03-01T06:32:14;27.60;;;13.83;;
18853;SDS011;9556;49.374;19.446;2023-03-01T06:34:42;25.87;;;12.70;;
18853;SDS011;9556;49.374;19.446;2023-03-01T06:37:09;23.83;;;12.50;;
18853;SDS011;9556;49.374;19.446;2023-03-01T06:39:36;22.37;;;12.93;;
18853;SDS011;9556;49.374;19.446;2023-03-01T06:42:04;23.43;;;13.40;;
18853;SDS011;9556;49.374;19.446;2023-03-01T06:44:31;26.07;;;12.90;;
18853;SDS011;9556;49.374;19.446;2023-03-01T06:47:00;27.67;;;13.50;;
18853;SDS011;9556;49.374;19.446;2023-03-01T06:49:27;30.23;;;13.60;;
18853;SDS011;9556;49.374;19.446;2023-03-01T06:51:55;26.97;;;14.50;;
18853;SDS011;9556;49.374;19.446;2023-03-01T06:54:22;26.90;;;14.70;;
18853;SDS011;9556;49.374;19.446;2023-03-01T06:56:50;27.93;;;14.70;;
18853;SDS011;9556;49.374;19.446;2023-03-01T06:59:18;29.13;;;16.60;;
18853;SDS011;9556;49.374;19.446;2023-03-01T07:01:46;26.47;;;15.67;;
18853;SDS011;9556;49.374;19.446;2023-03-01T07:04:14;24.37;;;13.53;;
18853;SDS011;9556;49.374;19.446;2023-03-01T07:06:41;23.27;;;13.60;;
18853;SDS011;9556;49.374;19.446;2023-03-01T07:09:09;31.00;;;13.87;;
18853;SDS011;9556;49.374;19.446;2023-03-01T07:11:53;26.53;;;13.77;;
18853;SDS011;9556;49.374;19.446;2023-03-01T07:14:23;24.00;;;13.30;;
18853;SDS011;9556;49.374;19.446;2023-03-01T07:16:50;29.47;;;14.27;;
18853;SDS011;9556;49.374;19.446;2023-03-01T07:19:19;29.77;;;12.80;;
18853;SDS011;9556;49.374;19.446;2023-03-01T07:21:46;24.23;;;12.80;;
18853;SDS011;9556;49.374;19.446;2023-03-01T07:24:15;28.90;;;12.27;;
18853;SDS011;9556;49.374;19.446;2023-03-01T07:26:43;24.07;;;12.27;;
18853;SDS011;9556;49.374;19.446;2023-03-01T07:29:10;22.90;;;12.17;;
18853;SDS011;9556;49.374;19.446;2023-03-01T07:31:37;24.83;;;12.13;;
18853;SDS011;9556;49.374;19.446;2023-03-01T07:34:04;34.87;;;12.60;;
18853;SDS011;9556;49.374;19.446;2023-03-01T07:36:33;28.93;;;12.50;;
18853;SDS011;9556;49.374;19.446;2023-03-01T07:39:00;28.77;;;12.83;;
18853;SDS011;9556;49.374;19.446;2023-03-01T07:41:28;27.33;;;11.80;;
18853;SDS011;9556;49.374;19.446;2023-03-01T07:43:55;29.77;;;12.00;;
18853;SDS011;9556;49.374;19.446;2023-03-01T07:46:23;30.93;;;17.37;;
18853;SDS011;9556;49.374;19.446;2023-03-01T07:48:50;30.23;;;15.33;;
18853;SDS011;9556;49.374;19.446;2023-03-01T07:51:17;25.10;;;13.87;;
18853;SDS011;9556;49.374;19.446;2023-03-01T07:53:46;25.30;;;13.70;;
18853;SDS011;9556;49.374;19.446;2023-03-01T07:56:14;24.90;;;12.80;;
18853;SDS011;9556;49.374;19.446;2023-03-01T07:58:43;22.97;;;12.13;;
18853;SDS011;9556;49.374;19.446;2023-03-01T08:01:11;28.30;;;13.50;;
18853;SDS011;9556;49.374;19.446;2023-03-01T08:03:38;23.07;;;12.50;;
18853;SDS011;9556;49.374;19.446;2023-03-01T08:06:07;24.93;;;12.00;;
18853;SDS011;9556;49.374;19.446;2023-03-01T08:08:34;21.50;;;11.63;;
18853;SDS011;9556;49.374;19.446;2023-03-01T08:11:03;22.67;;;10.90;;
18853;SDS011;9556;49.374;19.446;2023-03-01T08:13:32;22.90;;;11.50;;
18853;SDS011;9556;49.374;19.446;2023-03-01T08:16:00;20.80;;;11.27;;
18853;SDS011;9556;49.374;19.446;2023-03-01T08:18:28;23.07;;;12.33;;
18853;SDS011;9556;49.374;19.446;2023-03-01T08:21:01;31.40;;;13.03;;
18853;SDS011;9556;49.374;19.446;2023-03-01T08:23:28;25.40;;;11.90;;
18853;SDS011;9556;49.374;19.446;2023-03-01T08:26:03;22.73;;;13.07;;
18853;SDS011;9556;49.374;19.446;2023-03-01T08:28:31;19.90;;;11.87;;
18853;SDS011;9556;49.374;19.446;2023-03-01T08:30:58;25.50;;;12.93;;
18853;SDS011;9556;49.374;19.446;2023-03-01T08:33:25;27.80;;;12.00;;
18853;SDS011;9556;49.374;19.446;2023-03-01T08:35:52;20.13;;;11.27;;
18853;SDS011;9556;49.374;19.446;2023-03-01T08:38:19;25.33;;;12.50;;
18853;SDS011;9556;49.374;19.446;2023-03-01T08:40:46;25.43;;;11.93;;
18853;SDS011;9556;49.374;19.446;2023-03-01T08:43:15;35.50;;;11.83;;
18853;SDS011;9556;49.374;19.446;2023-03-01T08:45:42;26.90;;;12.50;;
18853;SDS011;9556;49.374;19.446;2023-03-01T08:48:10;30.27;;;12.37;;
18853;SDS011;9556;49.374;19.446;2023-03-01T08:50:37;25.57;;;11.80;;
18853;SDS011;9556;49.374;19.446;2023-03-01T08:53:04;25.97;;;11.43;;
18853;SDS011;9556;49.374;19.446;2023-03-01T08:55:31;21.27;;;11.50;;
18853;SDS011;9556;49.374;19.446;2023-03-01T08:57:58;28.80;;;12.00;;
18853;SDS011;9556;49.374;19.446;2023-03-01T09:00:27;25.97;;;12.10;;
18853;SDS011;9556;49.374;19.446;2023-03-01T09:02:54;20.03;;;10.60;;
18853;SDS011;9556;49.374;19.446;2023-03-01T09:05:21;23.60;;;11.67;;
18853;SDS011;9556;49.374;19.446;2023-03-01T09:07:48;18.73;;;11.37;;
18853;SDS011;9556;49.374;19.446;2023-03-01T09:10:15;19.13;;;11.23;;
18853;SDS011;9556;49.374;19.446;2023-03-01T09:12:43;19.90;;;10.80;;
18853;SDS011;9556;49.374;19.446;2023-03-01T09:15:10;18.23;;;10.13;;
18853;SDS011;9556;49.374;19.446;2023-03-01T09:17:39;21.87;;;11.20;;
18853;SDS011;9556;49.374;19.446;2023-03-01T09:20:06;17.43;;;10.27;;
18853;SDS011;9556;49.374;19.446;2023-03-01T09:22:33;23.13;;;10.47;;
18853;SDS011;9556;49.374;19.446;2023-03-01T09:25:01;18.70;;;10.53;;
18853;SDS011;9556;49.374;19.446;2023-03-01T09:27:28;16.57;;;9.83;;
18853;SDS011;9556;49.374;19.446;2023-03-01T09:29:55;16.90;;;10.63;;
18853;SDS011;9556;49.374;19.446;2023-03-01T09:32:22;18.47;;;10.97;;
18853;SDS011;9556;49.374;19.446;2023-03-01T09:34:50;16.53;;;10.30;;
18853;SDS011;9556;49.374;19.446;2023-03-01T09:37:29;18.77;;;10.50;;
18853;SDS011;9556;49.374;19.446;2023-03-01T09:39:57;18.57;;;10.27;;
18853;SDS011;9556;49.374;19.446;2023-03-01T09:42:27;21.63;;;10.63;;
18853;SDS011;9556;49.374;19.446;2023-03-01T09:44:57;16.73;;;10.17;;
18853;SDS011;9556;49.374;19.446;2023-03-01T09:47:27;15.37;;;9.70;;
18853;SDS011;9556;49.374;19.446;2023-03-01T09:50:02;14.60;;;9.10;;
18853;SDS011;9556;49.374;19.446;2023-03-01T09:52:34;17.93;;;9.27;;
18853;SDS011;9556;49.374;19.446;2023-03-01T09:55:04;12.83;;;8.60;;
18853;SDS011;9556;49.374;19.446;2023-03-01T09:57:36;21.33;;;9.53;;
18853;SDS011;9556;49.374;19.446;2023-03-01T10:00:09;19.03;;;10.13;;
18853;SDS011;9556;49.374;19.446;2023-03-01T10:02:39;25.17;;;10.23;;
18853;SDS011;9556;49.374;19.446;2023-03-01T10:08:06;23.80;;;9.53;;
18853;SDS011;9556;49.374;19.446;2023-03-01T10:10:40;26.40;;;9.83;;
18853;SDS011;9556;49.374;19.446;2023-03-01T10:13:10;18.33;;;10.10;;
18853;SDS011;9556;49.374;19.446;2023-03-01T10:15:43;21.13;;;10.70;;
18853;SDS011;9556;49.374;19.446;2023-03-01T10:18:12;21.53;;;10.33;;
18853;SDS011;9556;49.374;19.446;2023-03-01T10:20:42;15.63;;;10.00;;
18853;SDS011;9556;49.374;19.446;2023-03-01T10:23:12;15.10;;;9.17;;
18853;SDS011;9556;49.374;19.446;2023-03-01T10:25:42;13.67;;;8.60;;
18853;SDS011;9556;49.374;19.446;2023-03-01T10:28:14;17.67;;;9.27;;
18853;SDS011;9556;49.374;19.446;2023-03-01T10:30:43;19.37;;;9.60;;
18853;SDS011;9556;49.374;19.446;2023-03-01T10:33:13;15.73;;;8.00;;
18853;SDS011;9556;49.374;19.446;2023-03-01T10:35:42;15.50;;;9.00;;
18853;SDS011;9556;49.374;19.446;2023-03-01T10:38:10;15.63;;;8.90;;
18853;SDS011;9556;49.374;19.446;2023-03-01T10:40:49;13.90;;;8.60;;
18853;SDS011;9556;49.374;19.446;2023-03-01T10:43:17;13.67;;;8.63;;
18853;SDS011;9556;49.374;19.446;2023-03-01T10:45:44;16.70;;;8.77;;
18853;SDS011;9556;49.374;19.446;2023-03-01T10:48:12;18.83;;;8.43;;
18853;SDS011;9556;49.374;19.446;2023-03-01T10:50:40;14.13;;;7.83;;
18853;SDS011;9556;49.374;19.446;2023-03-01T10:53:18;16.30;;;10.60;;
18853;SDS011;9556;49.374;19.446;2023-03-01T10:55:56;22.03;;;10.27;;
18853;SDS011;9556;49.374;19.446;2023-03-01T10:58:23;18.80;;;9.53;;
18853;SDS011;9556;49.374;19.446;2023-03-01T11:00:51;13.27;;;8.40;;
18853;SDS011;9556;49.374;19.446;2023-03-01T11:03:19;16.60;;;9.30;;
18853;SDS011;9556;49.374;19.446;2023-03-01T11:05:58;12.90;;;7.80;;
18853;SDS011;9556;49.374;19.446;2023-03-01T11:08:33;16.87;;;8.10;;
18853;SDS011;9556;49.374;19.446;2023-03-01T11:11:07;18.53;;;10.37;;
18853;SDS011;9556;49.374;19.446;2023-03-01T11:13:39;19.87;;;9.73;;
18853;SDS011;9556;49.374;19.446;2023-03-01T11:16:14;17.50;;;10.37;;
18853;SDS011;9556;49.374;19.446;2023-03-01T11:18:55;15.23;;;8.47;;
18853;SDS011;9556;49.374;19.446;2023-03-01T11:21:22;19.00;;;9.60;;
18853;SDS011;9556;49.374;19.446;2023-03-01T11:23:50;23.53;;;9.50;;
18853;SDS011;9556;49.374;19.446;2023-03-01T11:26:18;25.93;;;9.27;;
18853;SDS011;9556;49.374;19.446;2023-03-01T11:28:47;23.37;;;11.57;;
18853;SDS011;9556;49.374;19.446;2023-03-01T11:31:16;18.13;;;10.20;;
18853;SDS011;9556;49.374;19.446;2023-03-01T11:33:44;15.73;;;8.77;;
18853;SDS011;9556;49.374;19.446;2023-03-01T11:36:16;19.67;;;8.93;;
18853;SDS011;9556;49.374;19.446;2023-03-01T11:38:43;20.90;;;10.67;;
18853;SDS011;9556;49.374;19.446;2023-03-01T11:41:12;13.07;;;8.00;;
18853;SDS011;9556;49.374;19.446;2023-03-01T11:43:44;17.07;;;8.53;;
18853;SDS011;9556;49.374;19.446;2023-03-01T11:49:04;18.30;;;9.37;;
18853;SDS011;9556;49.374;19.446;2023-03-01T11:51:39;17.13;;;9.20;;
18853;SDS011;9556;49.374;19.446;2023-03-01T11:54:18;21.23;;;11.10;;
18853;SDS011;9556;49.374;19.446;2023-03-01T11:56:48;16.47;;;8.70;;
18853;SDS011;9556;49.374;19.446;2023-03-01T11:59:28;19.63;;;9.70;;
18853;SDS011;9556;49.374;19.446;2023-03-01T12:02:16;19.00;;;10.03;;
18853;SDS011;9556;49.374;19.446;2023-03-01T12:07:51;13.77;;;7.93;;
18853;SDS011;9556;49.374;19.446;2023-03-01T12:10:22;14.00;;;6.90;;
18853;SDS011;9556;49.374;19.446;2023-03-01T12:12:58;16.87;;;6.33;;
18853;SDS011;9556;49.374;19.446;2023-03-01T12:15:34;13.53;;;7.27;;
18853;SDS011;9556;49.374;19.446;2023-03-01T12:20:51;10.67;;;6.17;;
18853;SDS011;9556;49.374;19.446;2023-03-01T12:23:26;11.43;;;6.40;;
18853;SDS011;9556;49.374;19.446;2023-03-01T12:25:58;10.73;;;6.00;;
18853;SDS011;9556;49.374;19.446;2023-03-01T12:28:32;9.97;;;5.73;;
18853;SDS011;9556;49.374;19.446;2023-03-01T12:31:08;11.90;;;5.87;;
18853;SDS011;9556;49.374;19.446;2023-03-01T12:33:41;9.93;;;5.43;;
18853;SDS011;9556;49.374;19.446;2023-03-01T12:36:23;9.70;;;5.73;;
18853;SDS011;9556;49.374;19.446;2023-03-01T12:38:59;13.27;;;5.50;;
18853;SDS011;9556;49.374;19.446;2023-03-01T12:41:32;9.70;;;5.40;;
18853;SDS011;9556;49.374;19.446;2023-03-01T12:44:07;10.97;;;5.77;;
18853;SDS011;9556;49.374;19.446;2023-03-01T12:46:41;9.77;;;5.93;;
18853;SDS011;9556;49.374;19.446;2023-03-01T12:49:10;7.93;;;5.13;;
18853;SDS011;9556;49.374;19.446;2023-03-01T12:51:40;8.80;;;5.53;;
18853;SDS011;9556;49.374;19.446;2023-03-01T12:54:11;12.30;;;4.87;;
18853;SDS011;9556;49.374;19.446;2023-03-01T12:56:41;8.87;;;5.53;;
18853;SDS011;9556;49.374;19.446;2023-03-01T12:59:18;9.77;;;5.10;;
18853;SDS011;9556;49.374;19.446;2023-03-01T13:01:51;13.00;;;4.97;;
18853;SDS011;9556;49.374;19.446;2023-03-01T13:04:25;8.90;;;5.40;;
18853;SDS011;9556;49.374;19.446;2023-03-01T13:06:55;14.13;;;5.40;;
18853;SDS011;9556;49.374;19.446;2023-03-01T13:09:28;13.88;;;4.80;;
18853;SDS011;9556;49.374;19.446;2023-03-01T13:11:57;8.20;;;4.97;;
18853;SDS011;9556;49.374;19.446;2023-03-01T13:17:32;8.77;;;5.10;;
18853;SDS011;9556;49.374;19.446;2023-03-01T13:20:00;12.73;;;4.80;;
18853;SDS011;9556;49.374;19.446;2023-03-01T13:22:30;7.13;;;4.67;;
18853;SDS011;9556;49.374;19.446;2023-03-01T13:25:02;11.17;;;4.77;;
18853;SDS011;9556;49.374;19.446;2023-03-01T13:27:30;9.10;;;4.63;;
18853;SDS011;9556;49.374;19.446;2023-03-01T13:29:58;8.27;;;5.03;;
18853;SDS011;9556;49.374;19.446;2023-03-01T13:32:28;8.57;;;5.27;;
18853;SDS011;9556;49.374;19.446;2023-03-01T13:35:02;7.90;;;5.07;;
18853;SDS011;9556;49.374;19.446;2023-03-01T13:40:01;8.97;;;5.50;;
18853;SDS011;9556;49.374;19.446;2023-03-01T13:42:31;11.05;;;6.20;;
18853;SDS011;9556;49.374;19.446;2023-03-01T13:45:00;23.57;;;12.33;;
18853;SDS011;9556;49.374;19.446;2023-03-01T13:47:27;20.20;;;10.98;;
18853;SDS011;9556;49.374;19.446;2023-03-01T13:49:55;21.13;;;10.88;;
18853;SDS011;9556;49.374;19.446;2023-03-01T13:52:34;17.30;;;9.98;;
18853;SDS011;9556;49.374;19.446;2023-03-01T13:55:03;21.37;;;11.70;;
18853;SDS011;9556;49.374;19.446;2023-03-01T13:57:32;13.93;;;7.40;;
18853;SDS011;9556;49.374;19.446;2023-03-01T14:00:00;13.23;;;6.68;;
18853;SDS011;9556;49.374;19.446;2023-03-01T14:02:29;13.67;;;7.63;;
18853;SDS011;9556;49.374;19.446;2023-03-01T14:04:56;16.67;;;9.32;;
18853;SDS011;9556;49.374;19.446;2023-03-01T14:07:24;11.50;;;7.20;;
18853;SDS011;9556;49.374;19.446;2023-03-01T14:09:56;14.70;;;7.35;;
18853;SDS011;9556;49.374;19.446;2023-03-01T14:12:30;19.92;;;8.50;;
18853;SDS011;9556;49.374;19.446;2023-03-01T14:15:02;16.90;;;8.80;;
18853;SDS011;9556;49.374;19.446;2023-03-01T14:17:43;14.30;;;6.97;;
18853;SDS011;9556;49.374;19.446;2023-03-01T14:20:16;13.33;;;7.27;;
18853;SDS011;9556;49.374;19.446;2023-03-01T14:22:44;11.80;;;6.57;;
18853;SDS011;9556;49.374;19.446;2023-03-01T14:25:26;16.97;;;6.83;;
18853;SDS011;9556;49.374;19.446;2023-03-01T14:27:55;11.73;;;6.28;;
18853;SDS011;9556;49.374;19.446;2023-03-01T14:30:24;12.15;;;5.75;;
18853;SDS011;9556;49.374;19.446;2023-03-01T14:32:52;10.98;;;6.30;;
18853;SDS011;9556;49.374;19.446;2023-03-01T14:35:20;11.75;;;6.68;;
18853;SDS011;9556;49.374;19.446;2023-03-01T14:37:48;10.55;;;5.95;;
18853;SDS011;9556;49.374;19.446;2023-03-01T14:40:27;8.30;;;5.40;;
18853;SDS011;9556;49.374;19.446;2023-03-01T14:42:55;14.38;;;6.05;;
18853;SDS011;9556;49.374;19.446;2023-03-01T14:45:24;10.35;;;6.43;;
18853;SDS011;9556;49.374;19.446;2023-03-01T14:47:52;11.77;;;5.67;;
18853;SDS011;9556;49.374;19.446;2023-03-01T14:50:23;12.13;;;6.30;;
18853;SDS011;9556;49.374;19.446;2023-03-01T14:52:52;10.15;;;6.13;;
18853;SDS011;9556;49.374;19.446;2023-03-01T14:55:20;8.30;;;5.75;;
18853;SDS011;9556;49.374;19.446;2023-03-01T14:57:52;12.00;;;5.95;;